sensor_id;sensor_type;location;lat;lon;timestamp;temperature;humidity
3866;DHT22;1948;53.250;10.412;2024-01-10T00:02:02;-4.20;99.90
3866;DHT22;1948;53.250;10.412;2024-01-10T00:04:32;-4.20;99.90
3866;DHT22;1948;53.250;10.412;2024-01-10T00:06:59;-4.30;99.90
3866;DHT22;1948;53.250;10.412;2024-01-10T00:09:26;-4.30;99.90
3866;DHT22;1948;53.250;10.412;2024-01-10T00:11:53;-4.20;99.90
3866;DHT22;1948;53.250;10.412;2024-01-10T00:14:20;-4.20;99.90
3866;DHT22;1948;53.250;10.412;2024-01-10T00:16:47;-4.20;99.90
3866;DHT22;1948;53.250;10.412;2024-01-10T00:19:17;-4.20;99.90
3866;DHT22;1948;53.250;10.412;2024-01-10T00:21:44;-4.30;99.90
3866;DHT22;1948;53.250;10.412;2024-01-10T00:24:14;-4.20;99.90
3866;DHT22;1948;53.250;10.412;2024-01-10T00:26:41;-4.20;99.90
3866;DHT22;1948;53.250;10.412;2024-01-10T00:29:08;-4.20;99.90
3866;DHT22;1948;53.250;10.412;2024-01-10T00:31:37;-4.20;99.90
3866;DHT22;1948;53.250;10.412;2024-01-10T00:34:04;-4.30;99.90
3866;DHT22;1948;53.250;10.412;2024-01-10T00:36:36;-4.40;99.90
3866;DHT22;1948;53.250;10.412;2024-01-10T00:39:03;-4.30;99.90
3866;DHT22;1948;53.250;10.412;2024-01-10T00:41:30;-4.30;99.90
3866;DHT22;1948;53.250;10.412;2024-01-10T00:44:00;-4.40;99.90
3866;DHT22;1948;53.250;10.412;2024-01-10T00:46:27;-4.40;99.90
3866;DHT22;1948;53.250;10.412;2024-01-10T00:48:54;-4.40;99.90
3866;DHT22;1948;53.250;10.412;2024-01-10T00:51:22;-4.50;99.90
3866;DHT22;1948;53.250;10.412;2024-01-10T00:53:48;-4.60;99.90
3866;DHT22;1948;53.250;10.412;2024-01-10T00:56:15;-4.70;99.90
3866;DHT22;1948;53.250;10.412;2024-01-10T00:58:43;-4.70;99.90
3866;DHT22;1948;53.250;10.412;2024-01-10T01:01:10;-4.80;99.90
3866;DHT22;1948;53.250;10.412;2024-01-10T01:03:37;-4.90;99.90
3866;DHT22;1948;53.250;10.412;2024-01-10T01:06:04;-5.00;99.90
3866;DHT22;1948;53.250;10.412;2024-01-10T01:08:34;-5.00;99.90
3866;DHT22;1948;53.250;10.412;2024-01-10T01:11:01;-5.10;99.90
3866;DHT22;1948;53.250;10.412;2024-01-10T01:13:28;-5.10;99.90
3866;DHT22;1948;53.250;10.412;2024-01-10T01:15:57;-5.20;99.90
3866;DHT22;1948;53.250;10.412;2024-01-10T01:18:24;-5.30;99.90
3866;DHT22;1948;53.250;10.412;2024-01-10T01:20:54;-5.30;99.90
3866;DHT22;1948;53.250;10.412;2024-01-10T01:23:20;-5.30;99.90
3866;DHT22;1948;53.250;10.412;2024-01-10T01:26:04;-5.30;99.90
3866;DHT22;1948;53.250;10.412;2024-01-10T01:28:33;-5.30;99.90
3866;DHT22;1948;53.250;10.412;2024-01-10T01:31:03;-5.20;99.90
3866;DHT22;1948;53.250;10.412;2024-01-10T01:33:30;-5.10;99.90
3866;DHT22;1948;53.250;10.412;2024-01-10T01:36:00;-5.10;99.90
3866;DHT22;1948;53.250;10.412;2024-01-10T01:38:27;-5.10;99.90
3866;DHT22;1948;53.250;10.412;2024-01-10T01:40:59;-5.10;99.90
3866;DHT22;1948;53.250;10.412;2024-01-10T01:43:27;-5.10;99.90
3866;DHT22;1948;53.250;10.412;2024-01-10T01:45:55;-5.10;99.90
3866;DHT22;1948;53.250;10.412;2024-01-10T01:48:24;-5.10;99.90
3866;DHT22;1948;53.250;10.412;2024-01-10T01:50:57;-5.20;99.90
3866;DHT22;1948;53.250;10.412;2024-01-10T01:53:31;-5.20;99.90
3866;DHT22;1948;53.250;10.412;2024-01-10T01:56:04;-5.20;99.90
3866;DHT22;1948;53.250;10.412;2024-01-10T01:58:33;-5.20;99.90
3866;DHT22;1948;53.250;10.412;2024-01-10T02:01:03;-5.20;99.90
3866;DHT22;1948;53.250;10.412;2024-01-10T02:03:32;-5.10;99.90
3866;DHT22;1948;53.250;10.412;2024-01-10T02:06:02;-5.10;99.90
3866;DHT22;1948;53.250;10.412;2024-01-10T02:08:33;-5.20;99.90
3866;DHT22;1948;53.250;10.412;2024-01-10T02:11:02;-5.10;99.90
3866;DHT22;1948;53.250;10.412;2024-01-10T02:13:33;-5.10;99.90
3866;DHT22;1948;53.250;10.412;2024-01-10T02:16:04;-5.10;99.90
3866;DHT22;1948;53.250;10.412;2024-01-10T02:18:34;-5.10;99.90
3866;DHT22;1948;53.250;10.412;2024-01-10T02:21:02;-5.10;99.90
3866;DHT22;1948;53.250;10.412;2024-01-10T02:23:29;-5.10;99.90
3866;DHT22;1948;53.250;10.412;2024-01-10T02:25:56;-5.10;99.90
3866;DHT22;1948;53.250;10.412;2024-01-10T02:28:23;-5.20;99.90
3866;DHT22;1948;53.250;10.412;2024-01-10T02:30:51;-5.20;99.90
3866;DHT22;1948;53.250;10.412;2024-01-10T02:33:25;-5.20;99.90
3866;DHT22;1948;53.250;10.412;2024-01-10T02:35:52;-5.10;99.90
3866;DHT22;1948;53.250;10.412;2024-01-10T02:38:19;-5.10;99.90
3866;DHT22;1948;53.250;10.412;2024-01-10T02:40:50;-5.10;99.90
3866;DHT22;1948;53.250;10.412;2024-01-10T02:43:20;-5.10;99.90
3866;DHT22;1948;53.250;10.412;2024-01-10T02:45:47;-5.20;99.90
3866;DHT22;1948;53.250;10.412;2024-01-10T02:48:16;-5.20;99.90
3866;DHT22;1948;53.250;10.412;2024-01-10T02:50:45;-5.10;99.90
3866;DHT22;1948;53.250;10.412;2024-01-10T02:53:12;-5.10;99.90
3866;DHT22;1948;53.250;10.412;2024-01-10T02:55:45;-5.10;99.90
3866;DHT22;1948;53.250;10.412;2024-01-10T02:58:13;-5.10;99.90
3866;DHT22;1948;53.250;10.412;2024-01-10T03:00:40;-5.10;99.90
3866;DHT22;1948;53.250;10.412;2024-01-10T03:03:07;-5.10;99.90
3866;DHT22;1948;53.250;10.412;2024-01-10T03:05:34;-5.10;99.90
3866;DHT22;1948;53.250;10.412;2024-01-10T03:08:01;-5.10;99.90
3866;DHT22;1948;53.250;10.412;2024-01-10T03:10:29;-5.00;99.90
3866;DHT22;1948;53.250;10.412;2024-01-10T03:12:59;-5.00;99.90
3866;DHT22;1948;53.250;10.412;2024-01-10T03:15:28;-5.00;99.90
3866;DHT22;1948;53.250;10.412;2024-01-10T03:17:55;-5.00;99.90
3866;DHT22;1948;53.250;10.412;2024-01-10T03:20:22;-5.00;99.90
3866;DHT22;1948;53.250;10.412;2024-01-10T03:22:50;-4.90;99.90
3866;DHT22;1948;53.250;10.412;2024-01-10T03:25:17;-4.90;99.90
3866;DHT22;1948;53.250;10.412;2024-01-10T03:27:47;-4.90;99.90
3866;DHT22;1948;53.250;10.412;2024-01-10T03:30:14;-4.90;99.90
3866;DHT22;1948;53.250;10.412;2024-01-10T03:32:41;-4.90;99.90
3866;DHT22;1948;53.250;10.412;2024-01-10T03:35:10;-4.80;99.90
3866;DHT22;1948;53.250;10.412;2024-01-10T03:37:40;-4.80;99.90
3866;DHT22;1948;53.250;10.412;2024-01-10T03:40:07;-4.70;99.90
3866;DHT22;1948;53.250;10.412;2024-01-10T03:42:35;-4.80;99.90
3866;DHT22;1948;53.250;10.412;2024-01-10T03:45:02;-4.70;99.90
3866;DHT22;1948;53.250;10.412;2024-01-10T03:47:34;-4.80;99.90
3866;DHT22;1948;53.250;10.412;2024-01-10T03:50:01;-4.80;99.90
3866;DHT22;1948;53.250;10.412;2024-01-10T03:52:28;-4.80;99.90
3866;DHT22;1948;53.250;10.412;2024-01-10T03:54:55;-4.30;99.90
3866;DHT22;1948;53.250;10.412;2024-01-10T03:57:24;-4.20;99.90
3866;DHT22;1948;53.250;10.412;2024-01-10T03:59:51;-4.30;99.90
3866;DHT22;1948;53.250;10.412;2024-01-10T04:02:18;-4.20;99.90
3866;DHT22;1948;53.250;10.412;2024-01-10T04:04:57;-4.30;99.90
3866;DHT22;1948;53.250;10.412;2024-01-10T04:07:26;-4.30;99.90
3866;DHT22;1948;53.250;10.412;2024-01-10T04:09:56;-4.40;99.90
3866;DHT22;1948;53.250;10.412;2024-01-10T04:12:28;-4.60;99.90
3866;DHT22;1948;53.250;10.412;2024-01-10T04:14:55;-4.70;99.90
3866;DHT22;1948;53.250;10.412;2024-01-10T04:17:27;-4.90;99.90
3866;DHT22;1948;53.250;10.412;2024-01-10T04:19:54;-4.90;99.90
3866;DHT22;1948;53.250;10.412;2024-01-10T04:22:21;-5.00;99.90
3866;DHT22;1948;53.250;10.412;2024-01-10T04:24:51;-5.00;99.90
3866;DHT22;1948;53.250;10.412;2024-01-10T04:27:18;-5.10;99.90
3866;DHT22;1948;53.250;10.412;2024-01-10T04:29:45;-5.10;99.90
3866;DHT22;1948;53.250;10.412;2024-01-10T04:32:14;-5.20;99.90
3866;DHT22;1948;53.250;10.412;2024-01-10T04:34:59;-5.20;99.90
3866;DHT22;1948;53.250;10.412;2024-01-10T04:37:26;-5.20;99.90
3866;DHT22;1948;53.250;10.412;2024-01-10T04:39:53;-5.20;99.90
3866;DHT22;1948;53.250;10.412;2024-01-10T04:42:20;-5.10;99.90
3866;DHT22;1948;53.250;10.412;2024-01-10T04:44:49;-5.10;99.90
3866;DHT22;1948;53.250;10.412;2024-01-10T04:47:18;-5.10;99.90
3866;DHT22;1948;53.250;10.412;2024-01-10T04:49:45;-5.00;99.90
3866;DHT22;1948;53.250;10.412;2024-01-10T04:52:15;-5.00;99.90
3866;DHT22;1948;53.250;10.412;2024-01-10T04:54:42;-5.00;99.90
3866;DHT22;1948;53.250;10.412;2024-01-10T04:57:09;-5.00;99.90
3866;DHT22;1948;53.250;10.412;2024-01-10T04:59:36;-5.10;99.90
3866;DHT22;1948;53.250;10.412;2024-01-10T05:02:06;-5.10;99.90
3866;DHT22;1948;53.250;10.412;2024-01-10T05:04:35;-5.10;99.90
3866;DHT22;1948;53.250;10.412;2024-01-10T05:07:08;-5.10;99.90
3866;DHT22;1948;53.250;10.412;2024-01-10T05:09:34;-5.20;99.90
3866;DHT22;1948;53.250;10.412;2024-01-10T05:12:03;-5.10;99.90
3866;DHT22;1948;53.250;10.412;2024-01-10T05:14:30;-5.20;99.90
3866;DHT22;1948;53.250;10.412;2024-01-10T05:16:57;-5.10;99.90
3866;DHT22;1948;53.250;10.412;2024-01-10T05:19:27;-5.10;99.90
3866;DHT22;1948;53.250;10.412;2024-01-10T05:21:54;-5.10;99.90
3866;DHT22;1948;53.250;10.412;2024-01-10T05:24:21;-5.10;99.90
3866;DHT22;1948;53.250;10.412;2024-01-10T05:26:53;-5.10;99.90
3866;DHT22;1948;53.250;10.412;2024-01-10T05:29:25;-5.10;99.90
3866;DHT22;1948;53.250;10.412;2024-01-10T05:31:52;-5.20;99.90
3866;DHT22;1948;53.250;10.412;2024-01-10T05:34:19;-5.20;99.90
3866;DHT22;1948;53.250;10.412;2024-01-10T05:36:46;-5.20;99.90
3866;DHT22;1948;53.250;10.412;2024-01-10T05:39:13;-5.10;99.90
3866;DHT22;1948;53.250;10.412;2024-01-10T05:41:42;-5.20;99.90
3866;DHT22;1948;53.250;10.412;2024-01-10T05:44:12;-5.30;99.90
3866;DHT22;1948;53.250;10.412;2024-01-10T05:46:40;-5.30;99.90
3866;DHT22;1948;53.250;10.412;2024-01-10T05:49:09;-5.30;99.90
3866;DHT22;1948;53.250;10.412;2024-01-10T05:51:37;-5.30;99.90
3866;DHT22;1948;53.250;10.412;2024-01-10T05:54:04;-5.20;99.90
3866;DHT22;1948;53.250;10.412;2024-01-10T05:56:31;-5.20;99.90
3866;DHT22;1948;53.250;10.412;2024-01-10T05:59:02;-5.20;99.90
3866;DHT22;1948;53.250;10.412;2024-01-10T06:01:29;-5.20;99.90
3866;DHT22;1948;53.250;10.412;2024-01-10T06:03:58;-5.20;99.90
3866;DHT22;1948;53.250;10.412;2024-01-10T06:06:25;-5.20;99.90
3866;DHT22;1948;53.250;10.412;2024-01-10T06:08:53;-5.20;99.90
3866;DHT22;1948;53.250;10.412;2024-01-10T06:11:20;-5.30;99.90
3866;DHT22;1948;53.250;10.412;2024-01-10T06:13:47;-5.30;99.90
3866;DHT22;1948;53.250;10.412;2024-01-10T06:16:22;-5.30;99.90
3866;DHT22;1948;53.250;10.412;2024-01-10T06:18:49;-5.30;99.90
3866;DHT22;1948;53.250;10.412;2024-01-10T06:21:17;-5.40;99.90
3866;DHT22;1948;53.250;10.412;2024-01-10T06:23:46;-5.40;99.90
3866;DHT22;1948;53.250;10.412;2024-01-10T06:26:13;-5.50;99.90
3866;DHT22;1948;53.250;10.412;2024-01-10T06:28:41;-5.50;99.90
3866;DHT22;1948;53.250;10.412;2024-01-10T06:31:13;-5.50;99.90
3866;DHT22;1948;53.250;10.412;2024-01-10T06:33:40;-5.50;99.90
3866;DHT22;1948;53.250;10.412;2024-01-10T06:36:07;-5.50;99.90
3866;DHT22;1948;53.250;10.412;2024-01-10T06:38:34;-5.60;99.90
3866;DHT22;1948;53.250;10.412;2024-01-10T06:41:14;-5.60;99.90
3866;DHT22;1948;53.250;10.412;2024-01-10T06:43:43;-5.60;99.90
3866;DHT22;1948;53.250;10.412;2024-01-10T06:46:10;-5.60;99.90
3866;DHT22;1948;53.250;10.412;2024-01-10T06:48:42;-5.60;99.90
3866;DHT22;1948;53.250;10.412;2024-01-10T06:51:17;-5.60;99.90
3866;DHT22;1948;53.250;10.412;2024-01-10T06:53:47;-5.60;99.90
3866;DHT22;1948;53.250;10.412;2024-01-10T06:56:16;-5.60;99.90
3866;DHT22;1948;53.250;10.412;2024-01-10T06:58:43;-5.60;99.90
3866;DHT22;1948;53.250;10.412;2024-01-10T07:01:11;-5.60;99.90
3866;DHT22;1948;53.250;10.412;2024-01-10T07:03:40;-5.60;99.90
3866;DHT22;1948;53.250;10.412;2024-01-10T07:06:08;-5.70;99.90
3866;DHT22;1948;53.250;10.412;2024-01-10T07:08:35;-5.70;99.90
3866;DHT22;1948;53.250;10.412;2024-01-10T07:11:02;-5.80;99.90
3866;DHT22;1948;53.250;10.412;2024-01-10T07:13:32;-5.80;99.90
3866;DHT22;1948;53.250;10.412;2024-01-10T07:16:03;-5.90;99.90
3866;DHT22;1948;53.250;10.412;2024-01-10T07:18:30;-5.80;99.90
3866;DHT22;1948;53.250;10.412;2024-01-10T07:20:57;-5.80;99.90
3866;DHT22;1948;53.250;10.412;2024-01-10T07:23:25;-5.90;99.90
3866;DHT22;1948;53.250;10.412;2024-01-10T07:25:56;-5.70;99.90
3866;DHT22;1948;53.250;10.412;2024-01-10T07:28:23;-5.90;99.90
3866;DHT22;1948;53.250;10.412;2024-01-10T07:30:52;-5.90;99.90
3866;DHT22;1948;53.250;10.412;2024-01-10T07:33:22;-5.90;99.90
3866;DHT22;1948;53.250;10.412;2024-01-10T07:35:49;-5.80;99.90
3866;DHT22;1948;53.250;10.412;2024-01-10T07:38:18;-5.80;99.90
3866;DHT22;1948;53.250;10.412;2024-01-10T07:40:45;-5.70;99.90
3866;DHT22;1948;53.250;10.412;2024-01-10T07:43:12;-5.60;99.90
3866;DHT22;1948;53.250;10.412;2024-01-10T07:45:39;-5.50;99.90
3866;DHT22;1948;53.250;10.412;2024-01-10T07:48:06;-5.50;99.90
3866;DHT22;1948;53.250;10.412;2024-01-10T07:50:37;-5.40;99.90
3866;DHT22;1948;53.250;10.412;2024-01-10T07:53:04;-5.20;99.90
3866;DHT22;1948;53.250;10.412;2024-01-10T07:55:32;-5.10;99.90
3866;DHT22;1948;53.250;10.412;2024-01-10T07:57:59;-5.00;99.90
3866;DHT22;1948;53.250;10.412;2024-01-10T08:00:28;-5.00;99.90
3866;DHT22;1948;53.250;10.412;2024-01-10T08:02:57;-5.00;99.90
3866;DHT22;1948;53.250;10.412;2024-01-10T08:05:24;-5.00;99.90
3866;DHT22;1948;53.250;10.412;2024-01-10T08:07:55;-5.00;99.90
3866;DHT22;1948;53.250;10.412;2024-01-10T08:10:23;-5.10;99.90
3866;DHT22;1948;53.250;10.412;2024-01-10T08:12:53;-5.10;99.90
3866;DHT22;1948;53.250;10.412;2024-01-10T08:15:23;-5.00;99.90
3866;DHT22;1948;53.250;10.412;2024-01-10T08:17:50;-5.00;99.90
3866;DHT22;1948;53.250;10.412;2024-01-10T08:20:20;-4.90;99.90
3866;DHT22;1948;53.250;10.412;2024-01-10T08:22:50;-4.90;99.90
3866;DHT22;1948;53.250;10.412;2024-01-10T08:25:20;-4.80;99.90
3866;DHT22;1948;53.250;10.412;2024-01-10T08:27:47;-4.70;99.90
3866;DHT22;1948;53.250;10.412;2024-01-10T08:30:18;-4.60;99.90
3866;DHT22;1948;53.250;10.412;2024-01-10T08:32:45;-4.50;99.90
3866;DHT22;1948;53.250;10.412;2024-01-10T08:35:13;-4.40;99.90
3866;DHT22;1948;53.250;10.412;2024-01-10T08:37:40;-4.30;99.90
3866;DHT22;1948;53.250;10.412;2024-01-10T08:40:10;-4.10;99.90
3866;DHT22;1948;53.250;10.412;2024-01-10T08:42:41;-4.10;99.90
3866;DHT22;1948;53.250;10.412;2024-01-10T08:45:09;-4.00;99.90
3866;DHT22;1948;53.250;10.412;2024-01-10T08:47:38;-4.10;99.90
3866;DHT22;1948;53.250;10.412;2024-01-10T08:50:08;-4.10;99.90
3866;DHT22;1948;53.250;10.412;2024-01-10T08:52:38;-4.10;99.90
3866;DHT22;1948;53.250;10.412;2024-01-10T08:55:08;-4.10;99.90
3866;DHT22;1948;53.250;10.412;2024-01-10T08:57:42;-4.00;99.90
3866;DHT22;1948;53.250;10.412;2024-01-10T09:00:09;-3.80;99.90
3866;DHT22;1948;53.250;10.412;2024-01-10T09:02:39;-3.70;99.90
3866;DHT22;1948;53.250;10.412;2024-01-10T09:05:09;-3.60;99.90
3866;DHT22;1948;53.250;10.412;2024-01-10T09:07:38;-3.50;99.90
3866;DHT22;1948;53.250;10.412;2024-01-10T09:10:09;-3.40;99.90
3866;DHT22;1948;53.250;10.412;2024-01-10T09:12:38;-3.40;99.90
3866;DHT22;1948;53.250;10.412;2024-01-10T09:15:08;-3.30;99.90
3866;DHT22;1948;53.250;10.412;2024-01-10T09:17:42;-3.30;99.90
3866;DHT22;1948;53.250;10.412;2024-01-10T09:20:10;-3.30;99.90
3866;DHT22;1948;53.250;10.412;2024-01-10T09:22:40;-3.30;99.90
3866;DHT22;1948;53.250;10.412;2024-01-10T09:25:10;-3.20;99.90
3866;DHT22;1948;53.250;10.412;2024-01-10T09:27:39;-3.00;99.90
3866;DHT22;1948;53.250;10.412;2024-01-10T09:30:13;-3.00;99.90
3866;DHT22;1948;53.250;10.412;2024-01-10T09:32:43;-2.90;99.90
3866;DHT22;1948;53.250;10.412;2024-01-10T09:35:11;-2.90;99.90
3866;DHT22;1948;53.250;10.412;2024-01-10T09:37:39;-2.70;99.90
3866;DHT22;1948;53.250;10.412;2024-01-10T09:40:10;-2.40;99.90
3866;DHT22;1948;53.250;10.412;2024-01-10T09:42:40;-1.80;99.90
3866;DHT22;1948;53.250;10.412;2024-01-10T09:45:09;-1.30;99.90
3866;DHT22;1948;53.250;10.412;2024-01-10T09:47:43;-1.00;99.90
3866;DHT22;1948;53.250;10.412;2024-01-10T09:50:12;-0.40;99.90
3866;DHT22;1948;53.250;10.412;2024-01-10T09:52:51;0.20;99.90
3866;DHT22;1948;53.250;10.412;2024-01-10T09:55:23;1.40;99.90
3866;DHT22;1948;53.250;10.412;2024-01-10T09:57:51;2.70;99.90
3866;DHT22;1948;53.250;10.412;2024-01-10T10:00:21;4.00;99.90
3866;DHT22;1948;53.250;10.412;2024-01-10T10:02:51;4.90;99.90
3866;DHT22;1948;53.250;10.412;2024-01-10T10:05:18;6.00;99.90
3866;DHT22;1948;53.250;10.412;2024-01-10T10:07:50;7.50;99.90
3866;DHT22;1948;53.250;10.412;2024-01-10T10:10:18;9.00;99.90
3866;DHT22;1948;53.250;10.412;2024-01-10T10:12:50;9.60;99.90
3866;DHT22;1948;53.250;10.412;2024-01-10T10:15:22;10.10;97.10
3866;DHT22;1948;53.250;10.412;2024-01-10T10:17:53;10.20;96.50
3866;DHT22;1948;53.250;10.412;2024-01-10T10:20:28;10.70;95.10
3866;DHT22;1948;53.250;10.412;2024-01-10T10:25:34;12.90;91.40
3866;DHT22;1948;53.250;10.412;2024-01-10T10:28:11;13.10;89.10
3866;DHT22;1948;53.250;10.412;2024-01-10T10:30:55;12.80;85.50
3866;DHT22;1948;53.250;10.412;2024-01-10T10:33:24;13.70;84.70
3866;DHT22;1948;53.250;10.412;2024-01-10T10:35:58;14.00;81.20
3866;DHT22;1948;53.250;10.412;2024-01-10T10:38:27;14.60;79.30
3866;DHT22;1948;53.250;10.412;2024-01-10T10:40:58;15.40;75.80
3866;DHT22;1948;53.250;10.412;2024-01-10T10:43:32;13.50;72.80
3866;DHT22;1948;53.250;10.412;2024-01-10T10:46:10;11.10;73.50
3866;DHT22;1948;53.250;10.412;2024-01-10T10:48:41;8.90;78.30
3866;DHT22;1948;53.250;10.412;2024-01-10T10:51:13;7.20;83.70
3866;DHT22;1948;53.250;10.412;2024-01-10T10:53:43;5.80;90.00
3866;DHT22;1948;53.250;10.412;2024-01-10T10:56:15;4.60;94.20
3866;DHT22;1948;53.250;10.412;2024-01-10T10:58:43;4.10;99.20
3866;DHT22;1948;53.250;10.412;2024-01-10T11:01:13;5.50;99.90
3866;DHT22;1948;53.250;10.412;2024-01-10T11:03:41;7.30;98.60
3866;DHT22;1948;53.250;10.412;2024-01-10T11:06:14;9.00;96.50
3866;DHT22;1948;53.250;10.412;2024-01-10T11:09:08;10.60;93.00
3866;DHT22;1948;53.250;10.412;2024-01-10T11:18:29;14.60;81.50
3866;DHT22;1948;53.250;10.412;2024-01-10T11:24:03;15.70;71.60
3866;DHT22;1948;53.250;10.412;2024-01-10T11:26:32;16.30;70.70
3866;DHT22;1948;53.250;10.412;2024-01-10T11:29:00;16.80;68.80
3866;DHT22;1948;53.250;10.412;2024-01-10T11:31:28;17.40;66.60
3866;DHT22;1948;53.250;10.412;2024-01-10T11:33:59;17.00;64.90
3866;DHT22;1948;53.250;10.412;2024-01-10T11:36:27;16.80;63.90
3866;DHT22;1948;53.250;10.412;2024-01-10T11:38:59;16.80;63.70
3866;DHT22;1948;53.250;10.412;2024-01-10T11:41:36;17.40;64.20
3866;DHT22;1948;53.250;10.412;2024-01-10T11:46:46;17.00;61.60
3866;DHT22;1948;53.250;10.412;2024-01-10T11:49:16;16.90;62.00
3866;DHT22;1948;53.250;10.412;2024-01-10T11:51:48;17.00;60.70
3866;DHT22;1948;53.250;10.412;2024-01-10T11:57:21;17.40;61.00
3866;DHT22;1948;53.250;10.412;2024-01-10T11:59:51;17.90;59.80
3866;DHT22;1948;53.250;10.412;2024-01-10T12:02:20;17.90;58.60
3866;DHT22;1948;53.250;10.412;2024-01-10T12:04:48;17.80;58.30
3866;DHT22;1948;53.250;10.412;2024-01-10T12:07:17;17.50;57.90
3866;DHT22;1948;53.250;10.412;2024-01-10T12:09:46;17.30;57.30
3866;DHT22;1948;53.250;10.412;2024-01-10T12:12:18;16.90;58.30
3866;DHT22;1948;53.250;10.412;2024-01-10T12:14:45;16.90;58.20
3866;DHT22;1948;53.250;10.412;2024-01-10T12:17:15;17.00;57.70
3866;DHT22;1948;53.250;10.412;2024-01-10T12:19:43;17.20;58.20
3866;DHT22;1948;53.250;10.412;2024-01-10T12:22:16;17.10;57.80
3866;DHT22;1948;53.250;10.412;2024-01-10T12:24:49;17.10;57.90
3866;DHT22;1948;53.250;10.412;2024-01-10T12:27:21;17.10;58.20
3866;DHT22;1948;53.250;10.412;2024-01-10T12:29:51;17.10;57.30
3866;DHT22;1948;53.250;10.412;2024-01-10T12:32:21;16.80;57.20
3866;DHT22;1948;53.250;10.412;2024-01-10T12:35:02;16.70;57.60
3866;DHT22;1948;53.250;10.412;2024-01-10T12:37:34;16.40;57.00
3866;DHT22;1948;53.250;10.412;2024-01-10T12:40:07;16.30;57.20
3866;DHT22;1948;53.250;10.412;2024-01-10T12:42:37;16.30;57.10
3866;DHT22;1948;53.250;10.412;2024-01-10T12:45:20;16.30;57.80
3866;DHT22;1948;53.250;10.412;2024-01-10T12:47:48;16.60;57.20
3866;DHT22;1948;53.250;10.412;2024-01-10T12:50:15;16.60;57.00
3866;DHT22;1948;53.250;10.412;2024-01-10T12:52:42;16.60;57.10
3866;DHT22;1948;53.250;10.412;2024-01-10T12:55:11;16.70;56.90
3866;DHT22;1948;53.250;10.412;2024-01-10T12:57:40;16.90;57.00
3866;DHT22;1948;53.250;10.412;2024-01-10T13:00:08;17.20;57.40
3866;DHT22;1948;53.250;10.412;2024-01-10T13:02:37;17.10;57.00
3866;DHT22;1948;53.250;10.412;2024-01-10T13:05:05;17.10;57.00
3866;DHT22;1948;53.250;10.412;2024-01-10T13:07:39;17.00;56.90
3866;DHT22;1948;53.250;10.412;2024-01-10T13:10:09;16.70;56.70
3866;DHT22;1948;53.250;10.412;2024-01-10T13:12:39;16.60;56.70
3866;DHT22;1948;53.250;10.412;2024-01-10T13:15:08;16.40;56.80
3866;DHT22;1948;53.250;10.412;2024-01-10T13:17:35;15.80;56.50
3866;DHT22;1948;53.250;10.412;2024-01-10T13:20:07;15.40;57.10
3866;DHT22;1948;53.250;10.412;2024-01-10T13:22:36;15.00;57.50
3866;DHT22;1948;53.250;10.412;2024-01-10T13:25:03;14.90;58.10
3866;DHT22;1948;53.250;10.412;2024-01-10T13:27:33;15.00;58.30
3866;DHT22;1948;53.250;10.412;2024-01-10T13:30:03;15.00;58.40
3866;DHT22;1948;53.250;10.412;2024-01-10T13:32:33;15.20;58.90
3866;DHT22;1948;53.250;10.412;2024-01-10T13:35:04;14.90;58.20
3866;DHT22;1948;53.250;10.412;2024-01-10T13:37:36;14.90;58.80
3866;DHT22;1948;53.250;10.412;2024-01-10T13:40:03;14.90;58.80
3866;DHT22;1948;53.250;10.412;2024-01-10T13:42:33;14.90;58.60
3866;DHT22;1948;53.250;10.412;2024-01-10T13:45:00;14.70;58.70
3866;DHT22;1948;53.250;10.412;2024-01-10T13:47:27;14.40;58.90
3866;DHT22;1948;53.250;10.412;2024-01-10T13:49:54;14.10;59.30
3866;DHT22;1948;53.250;10.412;2024-01-10T13:52:22;13.80;59.30
3866;DHT22;1948;53.250;10.412;2024-01-10T13:54:49;13.40;59.60
3866;DHT22;1948;53.250;10.412;2024-01-10T13:57:16;13.10;60.00
3866;DHT22;1948;53.250;10.412;2024-01-10T13:59:43;12.90;60.80
3866;DHT22;1948;53.250;10.412;2024-01-10T14:02:14;12.90;61.80
3866;DHT22;1948;53.250;10.412;2024-01-10T14:04:44;13.00;61.90
3866;DHT22;1948;53.250;10.412;2024-01-10T14:07:11;12.70;62.30
3866;DHT22;1948;53.250;10.412;2024-01-10T14:09:38;11.90;62.40
3866;DHT22;1948;53.250;10.412;2024-01-10T14:12:05;11.30;63.80
3866;DHT22;1948;53.250;10.412;2024-01-10T14:14:32;10.90;64.90
3866;DHT22;1948;53.250;10.412;2024-01-10T14:17:02;10.90;65.90
3866;DHT22;1948;53.250;10.412;2024-01-10T14:19:31;10.70;66.20
3866;DHT22;1948;53.250;10.412;2024-01-10T14:21:58;10.30;67.20
3866;DHT22;1948;53.250;10.412;2024-01-10T14:24:32;9.90;69.10
3866;DHT22;1948;53.250;10.412;2024-01-10T14:26:59;10.00;69.30
3866;DHT22;1948;53.250;10.412;2024-01-10T14:29:26;9.90;70.90
3866;DHT22;1948;53.250;10.412;2024-01-10T14:31:54;9.40;71.30
3866;DHT22;1948;53.250;10.412;2024-01-10T14:34:43;8.40;72.90
3866;DHT22;1948;53.250;10.412;2024-01-10T14:37:12;6.90;76.20
3866;DHT22;1948;53.250;10.412;2024-01-10T14:39:43;5.70;83.70
3866;DHT22;1948;53.250;10.412;2024-01-10T14:42:10;4.80;91.70
3866;DHT22;1948;53.250;10.412;2024-01-10T14:44:42;3.80;97.00
3866;DHT22;1948;53.250;10.412;2024-01-10T14:47:13;3.10;99.90
3866;DHT22;1948;53.250;10.412;2024-01-10T14:49:43;2.50;99.90
3866;DHT22;1948;53.250;10.412;2024-01-10T14:52:10;2.00;99.90
3866;DHT22;1948;53.250;10.412;2024-01-10T14:54:39;1.70;99.90
3866;DHT22;1948;53.250;10.412;2024-01-10T14:57:09;1.30;99.90
3866;DHT22;1948;53.250;10.412;2024-01-10T14:59:40;1.10;99.90
3866;DHT22;1948;53.250;10.412;2024-01-10T15:02:13;0.80;99.90
3866;DHT22;1948;53.250;10.412;2024-01-10T15:04:41;0.60;99.90
3866;DHT22;1948;53.250;10.412;2024-01-10T15:07:08;0.30;99.90
3866;DHT22;1948;53.250;10.412;2024-01-10T15:09:35;0.20;99.90
3866;DHT22;1948;53.250;10.412;2024-01-10T15:12:07;0.10;99.90
3866;DHT22;1948;53.250;10.412;2024-01-10T15:14:37;0.00;99.90
3866;DHT22;1948;53.250;10.412;2024-01-10T15:17:07;-0.20;99.90
3866;DHT22;1948;53.250;10.412;2024-01-10T15:19:39;-0.40;99.90
3866;DHT22;1948;53.250;10.412;2024-01-10T15:22:07;-0.50;99.90
3866;DHT22;1948;53.250;10.412;2024-01-10T15:24:37;-0.60;99.90
3866;DHT22;1948;53.250;10.412;2024-01-10T15:27:07;-0.70;99.90
3866;DHT22;1948;53.250;10.412;2024-01-10T15:29:38;-0.80;99.90
3866;DHT22;1948;53.250;10.412;2024-01-10T15:32:07;-0.80;99.90
3866;DHT22;1948;53.250;10.412;2024-01-10T15:34:39;-0.80;99.90
3866;DHT22;1948;53.250;10.412;2024-01-10T15:37:06;-0.80;99.90
3866;DHT22;1948;53.250;10.412;2024-01-10T15:39:33;-0.80;99.90
3866;DHT22;1948;53.250;10.412;2024-01-10T15:42:05;-0.90;99.90
3866;DHT22;1948;53.250;10.412;2024-01-10T15:44:32;-0.90;99.90
3866;DHT22;1948;53.250;10.412;2024-01-10T15:47:02;-1.00;99.90
3866;DHT22;1948;53.250;10.412;2024-01-10T15:49:30;-1.00;99.90
3866;DHT22;1948;53.250;10.412;2024-01-10T15:52:02;-1.10;99.90
3866;DHT22;1948;53.250;10.412;2024-01-10T15:54:34;-1.10;99.90
3866;DHT22;1948;53.250;10.412;2024-01-10T15:57:05;-1.20;99.90
3866;DHT22;1948;53.250;10.412;2024-01-10T15:59:34;-1.30;99.90
3866;DHT22;1948;53.250;10.412;2024-01-10T16:02:04;-1.30;99.90
3866;DHT22;1948;53.250;10.412;2024-01-10T16:04:31;-1.30;99.90
3866;DHT22;1948;53.250;10.412;2024-01-10T16:07:00;-1.50;99.90
3866;DHT22;1948;53.250;10.412;2024-01-10T16:09:28;-1.50;99.90
3866;DHT22;1948;53.250;10.412;2024-01-10T16:11:57;-1.50;99.90
3866;DHT22;1948;53.250;10.412;2024-01-10T16:14:24;-1.40;99.90
3866;DHT22;1948;53.250;10.412;2024-01-10T16:16:53;-1.40;99.90
3866;DHT22;1948;53.250;10.412;2024-01-10T16:19:20;-1.30;99.90